sensor_id;sensor_type;location;lat;lon;timestamp;temperature;humidity
24638;DHT22;12773;50.162;8.548;2023-04-24T00:00:07;12.80;99.90
24638;DHT22;12773;50.162;8.548;2023-04-24T00:02:59;12.80;99.90
24638;DHT22;12773;50.162;8.548;2023-04-24T00:05:47;12.80;99.90
24638;DHT22;12773;50.162;8.548;2023-04-24T00:08:35;12.80;99.90
24638;DHT22;12773;50.162;8.548;2023-04-24T00:11:22;12.80;99.90
24638;DHT22;12773;50.162;8.548;2023-04-24T00:14:10;12.80;99.90
24638;DHT22;12773;50.162;8.548;2023-04-24T00:16:57;12.90;99.90
24638;DHT22;12773;50.162;8.548;2023-04-24T00:19:46;12.90;99.90
24638;DHT22;12773;50.162;8.548;2023-04-24T00:22:33;13.00;99.90
24638;DHT22;12773;50.162;8.548;2023-04-24T00:25:20;13.00;99.90
24638;DHT22;12773;50.162;8.548;2023-04-24T00:28:08;13.00;99.90
24638;DHT22;12773;50.162;8.548;2023-04-24T00:30:55;13.10;99.90
24638;DHT22;12773;50.162;8.548;2023-04-24T00:33:42;13.10;99.90
24638;DHT22;12773;50.162;8.548;2023-04-24T00:36:29;13.20;99.90
24638;DHT22;12773;50.162;8.548;2023-04-24T00:39:17;13.20;99.90
24638;DHT22;12773;50.162;8.548;2023-04-24T00:42:04;13.20;99.90
24638;DHT22;12773;50.162;8.548;2023-04-24T00:44:53;13.00;99.90
24638;DHT22;12773;50.162;8.548;2023-04-24T00:47:42;13.10;99.90
24638;DHT22;12773;50.162;8.548;2023-04-24T00:50:29;13.10;99.90
24638;DHT22;12773;50.162;8.548;2023-04-24T00:53:17;13.10;99.90
24638;DHT22;12773;50.162;8.548;2023-04-24T00:56:05;13.10;99.90
24638;DHT22;12773;50.162;8.548;2023-04-24T00:58:52;13.10;99.90
24638;DHT22;12773;50.162;8.548;2023-04-24T01:01:40;13.10;99.90
24638;DHT22;12773;50.162;8.548;2023-04-24T01:04:28;13.10;99.90
24638;DHT22;12773;50.162;8.548;2023-04-24T01:07:16;13.10;99.90
24638;DHT22;12773;50.162;8.548;2023-04-24T01:10:04;13.10;99.90
24638;DHT22;12773;50.162;8.548;2023-04-24T01:12:52;13.10;99.90
24638;DHT22;12773;50.162;8.548;2023-04-24T01:15:40;13.00;99.90
24638;DHT22;12773;50.162;8.548;2023-04-24T01:18:27;12.90;99.90
24638;DHT22;12773;50.162;8.548;2023-04-24T01:21:15;12.80;99.90
24638;DHT22;12773;50.162;8.548;2023-04-24T01:24:04;12.70;99.90
24638;DHT22;12773;50.162;8.548;2023-04-24T01:26:52;12.60;99.90
24638;DHT22;12773;50.162;8.548;2023-04-24T01:29:40;12.60;99.90
24638;DHT22;12773;50.162;8.548;2023-04-24T01:32:29;12.60;99.90
24638;DHT22;12773;50.162;8.548;2023-04-24T01:35:16;12.50;99.90
24638;DHT22;12773;50.162;8.548;2023-04-24T01:38:04;12.40;99.90
24638;DHT22;12773;50.162;8.548;2023-04-24T01:40:51;12.50;99.90
24638;DHT22;12773;50.162;8.548;2023-04-24T01:43:39;12.50;99.90
24638;DHT22;12773;50.162;8.548;2023-04-24T01:46:27;12.50;99.90
24638;DHT22;12773;50.162;8.548;2023-04-24T01:49:14;12.50;99.90
24638;DHT22;12773;50.162;8.548;2023-04-24T01:52:02;12.60;99.90
24638;DHT22;12773;50.162;8.548;2023-04-24T01:54:49;12.60;99.90
24638;DHT22;12773;50.162;8.548;2023-04-24T01:57:36;12.60;99.90
24638;DHT22;12773;50.162;8.548;2023-04-24T02:00:24;12.70;99.90
24638;DHT22;12773;50.162;8.548;2023-04-24T02:03:11;12.60;99.90
24638;DHT22;12773;50.162;8.548;2023-04-24T02:05:59;12.60;99.90
24638;DHT22;12773;50.162;8.548;2023-04-24T02:08:46;12.60;99.90
24638;DHT22;12773;50.162;8.548;2023-04-24T02:11:33;12.60;99.90
24638;DHT22;12773;50.162;8.548;2023-04-24T02:14:20;12.70;99.90
24638;DHT22;12773;50.162;8.548;2023-04-24T02:17:07;12.70;99.90
24638;DHT22;12773;50.162;8.548;2023-04-24T02:19:55;12.70;99.90
24638;DHT22;12773;50.162;8.548;2023-04-24T02:22:42;12.60;99.90
24638;DHT22;12773;50.162;8.548;2023-04-24T02:25:29;12.60;99.90
24638;DHT22;12773;50.162;8.548;2023-04-24T02:28:17;12.50;99.90
24638;DHT22;12773;50.162;8.548;2023-04-24T02:31:04;12.40;99.90
24638;DHT22;12773;50.162;8.548;2023-04-24T02:33:52;12.40;99.90
24638;DHT22;12773;50.162;8.548;2023-04-24T02:36:39;12.60;99.90
24638;DHT22;12773;50.162;8.548;2023-04-24T02:39:27;12.60;99.90
24638;DHT22;12773;50.162;8.548;2023-04-24T02:42:14;12.50;99.90
24638;DHT22;12773;50.162;8.548;2023-04-24T02:45:02;12.60;99.90
24638;DHT22;12773;50.162;8.548;2023-04-24T02:47:49;12.80;99.90
24638;DHT22;12773;50.162;8.548;2023-04-24T02:50:37;12.80;99.90
24638;DHT22;12773;50.162;8.548;2023-04-24T02:53:24;12.80;99.90
24638;DHT22;12773;50.162;8.548;2023-04-24T02:56:12;12.70;99.90
24638;DHT22;12773;50.162;8.548;2023-04-24T02:58:59;12.70;99.90
24638;DHT22;12773;50.162;8.548;2023-04-24T03:01:46;12.70;99.90
24638;DHT22;12773;50.162;8.548;2023-04-24T03:04:33;12.70;99.90
24638;DHT22;12773;50.162;8.548;2023-04-24T03:07:20;12.80;99.90
24638;DHT22;12773;50.162;8.548;2023-04-24T03:10:08;12.70;99.90
24638;DHT22;12773;50.162;8.548;2023-04-24T03:12:55;12.80;99.90
24638;DHT22;12773;50.162;8.548;2023-04-24T03:15:42;12.80;99.90
24638;DHT22;12773;50.162;8.548;2023-04-24T03:18:31;12.80;99.90
24638;DHT22;12773;50.162;8.548;2023-04-24T03:21:18;12.80;99.90
24638;DHT22;12773;50.162;8.548;2023-04-24T03:24:05;12.80;99.90
24638;DHT22;12773;50.162;8.548;2023-04-24T03:26:53;12.70;99.90
24638;DHT22;12773;50.162;8.548;2023-04-24T03:29:42;12.80;99.90
24638;DHT22;12773;50.162;8.548;2023-04-24T03:32:30;12.70;99.90
24638;DHT22;12773;50.162;8.548;2023-04-24T03:35:18;12.70;99.90
24638;DHT22;12773;50.162;8.548;2023-04-24T03:38:05;12.70;99.90
24638;DHT22;12773;50.162;8.548;2023-04-24T03:40:52;12.70;99.90
24638;DHT22;12773;50.162;8.548;2023-04-24T03:43:39;12.70;99.90
24638;DHT22;12773;50.162;8.548;2023-04-24T03:46:27;12.70;99.90
24638;DHT22;12773;50.162;8.548;2023-04-24T03:49:14;12.70;99.90
24638;DHT22;12773;50.162;8.548;2023-04-24T03:52:01;12.70;99.90
24638;DHT22;12773;50.162;8.548;2023-04-24T03:54:48;12.70;99.90
24638;DHT22;12773;50.162;8.548;2023-04-24T03:57:35;12.80;99.90
24638;DHT22;12773;50.162;8.548;2023-04-24T04:00:23;12.70;99.90
24638;DHT22;12773;50.162;8.548;2023-04-24T04:03:10;12.70;99.90
24638;DHT22;12773;50.162;8.548;2023-04-24T04:05:59;12.60;99.90
24638;DHT22;12773;50.162;8.548;2023-04-24T04:08:47;12.50;99.90
24638;DHT22;12773;50.162;8.548;2023-04-24T04:11:34;12.50;99.90
24638;DHT22;12773;50.162;8.548;2023-04-24T04:14:22;12.40;99.90
24638;DHT22;12773;50.162;8.548;2023-04-24T04:17:09;12.20;99.90
24638;DHT22;12773;50.162;8.548;2023-04-24T04:19:57;12.20;99.90
24638;DHT22;12773;50.162;8.548;2023-04-24T04:22:44;12.00;99.90
24638;DHT22;12773;50.162;8.548;2023-04-24T04:25:31;11.90;99.90
24638;DHT22;12773;50.162;8.548;2023-04-24T04:28:19;11.70;99.90
24638;DHT22;12773;50.162;8.548;2023-04-24T04:31:07;11.70;99.90
24638;DHT22;12773;50.162;8.548;2023-04-24T04:33:54;11.60;99.90
24638;DHT22;12773;50.162;8.548;2023-04-24T04:36:41;11.60;99.90
24638;DHT22;12773;50.162;8.548;2023-04-24T04:39:29;11.60;99.90
24638;DHT22;12773;50.162;8.548;2023-04-24T04:42:18;11.60;99.90
24638;DHT22;12773;50.162;8.548;2023-04-24T04:45:08;11.50;99.90
24638;DHT22;12773;50.162;8.548;2023-04-24T04:47:55;11.50;99.90
24638;DHT22;12773;50.162;8.548;2023-04-24T04:50:42;11.40;99.90
24638;DHT22;12773;50.162;8.548;2023-04-24T04:53:30;11.40;99.90
24638;DHT22;12773;50.162;8.548;2023-04-24T04:56:17;11.30;99.90
24638;DHT22;12773;50.162;8.548;2023-04-24T04:59:05;11.30;99.90
24638;DHT22;12773;50.162;8.548;2023-04-24T05:01:52;11.30;99.90
24638;DHT22;12773;50.162;8.548;2023-04-24T05:04:39;11.30;99.90
24638;DHT22;12773;50.162;8.548;2023-04-24T05:07:27;11.30;99.90
24638;DHT22;12773;50.162;8.548;2023-04-24T05:10:14;11.20;99.90
24638;DHT22;12773;50.162;8.548;2023-04-24T05:13:02;11.20;99.90
24638;DHT22;12773;50.162;8.548;2023-04-24T05:15:50;11.30;99.90
24638;DHT22;12773;50.162;8.548;2023-04-24T05:18:37;11.20;99.90
24638;DHT22;12773;50.162;8.548;2023-04-24T05:21:25;11.20;99.90
24638;DHT22;12773;50.162;8.548;2023-04-24T05:24:13;11.20;99.90
24638;DHT22;12773;50.162;8.548;2023-04-24T05:27:00;11.20;99.90
24638;DHT22;12773;50.162;8.548;2023-04-24T05:29:48;11.30;99.90
24638;DHT22;12773;50.162;8.548;2023-04-24T05:32:36;11.20;99.90
24638;DHT22;12773;50.162;8.548;2023-04-24T05:35:23;11.20;99.90
24638;DHT22;12773;50.162;8.548;2023-04-24T05:38:10;11.20;99.90
24638;DHT22;12773;50.162;8.548;2023-04-24T05:40:58;11.30;99.90
24638;DHT22;12773;50.162;8.548;2023-04-24T05:43:46;11.30;99.90
24638;DHT22;12773;50.162;8.548;2023-04-24T05:46:33;11.40;99.90
24638;DHT22;12773;50.162;8.548;2023-04-24T05:49:21;11.30;99.90
24638;DHT22;12773;50.162;8.548;2023-04-24T05:52:08;11.20;99.90
24638;DHT22;12773;50.162;8.548;2023-04-24T05:54:55;11.10;99.90
24638;DHT22;12773;50.162;8.548;2023-04-24T05:57:43;11.00;99.90
24638;DHT22;12773;50.162;8.548;2023-04-24T06:00:31;11.00;99.90
24638;DHT22;12773;50.162;8.548;2023-04-24T06:03:19;10.80;99.90
24638;DHT22;12773;50.162;8.548;2023-04-24T06:06:08;10.80;99.90
24638;DHT22;12773;50.162;8.548;2023-04-24T06:08:55;10.80;99.90
24638;DHT22;12773;50.162;8.548;2023-04-24T06:11:43;10.80;99.90
24638;DHT22;12773;50.162;8.548;2023-04-24T06:14:30;10.80;99.90
24638;DHT22;12773;50.162;8.548;2023-04-24T06:17:17;10.80;99.90
24638;DHT22;12773;50.162;8.548;2023-04-24T06:20:06;10.80;99.90
24638;DHT22;12773;50.162;8.548;2023-04-24T06:22:54;10.80;99.90
24638;DHT22;12773;50.162;8.548;2023-04-24T06:25:41;10.90;99.90
24638;DHT22;12773;50.162;8.548;2023-04-24T06:28:28;11.10;99.90
24638;DHT22;12773;50.162;8.548;2023-04-24T06:31:18;11.10;99.90
24638;DHT22;12773;50.162;8.548;2023-04-24T06:34:06;11.10;99.90
24638;DHT22;12773;50.162;8.548;2023-04-24T06:36:54;11.20;99.90
24638;DHT22;12773;50.162;8.548;2023-04-24T06:39:41;11.20;99.90
24638;DHT22;12773;50.162;8.548;2023-04-24T06:42:30;11.20;99.90
24638;DHT22;12773;50.162;8.548;2023-04-24T06:45:18;11.50;99.90
24638;DHT22;12773;50.162;8.548;2023-04-24T06:48:05;11.60;99.90
24638;DHT22;12773;50.162;8.548;2023-04-24T06:50:52;11.80;99.90
24638;DHT22;12773;50.162;8.548;2023-04-24T06:53:39;11.80;99.90
24638;DHT22;12773;50.162;8.548;2023-04-24T06:56:27;11.90;99.90
24638;DHT22;12773;50.162;8.548;2023-04-24T06:59:15;11.90;99.90
24638;DHT22;12773;50.162;8.548;2023-04-24T07:02:04;11.90;99.90
24638;DHT22;12773;50.162;8.548;2023-04-24T07:04:51;11.80;99.90
24638;DHT22;12773;50.162;8.548;2023-04-24T07:07:39;11.80;99.90
24638;DHT22;12773;50.162;8.548;2023-04-24T07:10:26;11.80;99.90
24638;DHT22;12773;50.162;8.548;2023-04-24T07:13:15;11.80;99.90
24638;DHT22;12773;50.162;8.548;2023-04-24T07:16:02;11.80;99.90
24638;DHT22;12773;50.162;8.548;2023-04-24T07:18:50;11.80;99.90
24638;DHT22;12773;50.162;8.548;2023-04-24T07:21:37;11.90;99.90
24638;DHT22;12773;50.162;8.548;2023-04-24T07:24:25;12.00;99.90
24638;DHT22;12773;50.162;8.548;2023-04-24T07:27:14;12.10;99.90
24638;DHT22;12773;50.162;8.548;2023-04-24T07:30:05;12.20;99.90
24638;DHT22;12773;50.162;8.548;2023-04-24T07:32:53;12.40;99.90
24638;DHT22;12773;50.162;8.548;2023-04-24T07:35:40;12.40;99.90
24638;DHT22;12773;50.162;8.548;2023-04-24T07:38:29;12.50;99.90
24638;DHT22;12773;50.162;8.548;2023-04-24T07:41:17;12.40;99.90
24638;DHT22;12773;50.162;8.548;2023-04-24T07:44:04;12.60;99.90
24638;DHT22;12773;50.162;8.548;2023-04-24T07:46:52;12.70;99.90
24638;DHT22;12773;50.162;8.548;2023-04-24T07:49:39;12.70;99.90
24638;DHT22;12773;50.162;8.548;2023-04-24T07:52:28;12.70;99.90
24638;DHT22;12773;50.162;8.548;2023-04-24T07:55:16;12.80;99.90
24638;DHT22;12773;50.162;8.548;2023-04-24T07:58:05;13.00;99.90
24638;DHT22;12773;50.162;8.548;2023-04-24T08:00:52;12.90;99.90
24638;DHT22;12773;50.162;8.548;2023-04-24T08:03:39;12.90;99.90
24638;DHT22;12773;50.162;8.548;2023-04-24T08:06:27;12.90;99.90
24638;DHT22;12773;50.162;8.548;2023-04-24T08:09:18;13.00;99.90
24638;DHT22;12773;50.162;8.548;2023-04-24T08:12:05;13.20;99.90
24638;DHT22;12773;50.162;8.548;2023-04-24T08:14:53;13.10;99.90
24638;DHT22;12773;50.162;8.548;2023-04-24T08:17:40;13.20;99.90
24638;DHT22;12773;50.162;8.548;2023-04-24T08:20:27;13.10;99.90
24638;DHT22;12773;50.162;8.548;2023-04-24T08:23:14;13.20;99.90
24638;DHT22;12773;50.162;8.548;2023-04-24T08:26:02;13.20;99.90
24638;DHT22;12773;50.162;8.548;2023-04-24T08:28:49;13.30;99.90
24638;DHT22;12773;50.162;8.548;2023-04-24T08:31:36;13.40;99.90
24638;DHT22;12773;50.162;8.548;2023-04-24T08:34:24;13.70;99.90
24638;DHT22;12773;50.162;8.548;2023-04-24T08:37:11;13.90;99.90
24638;DHT22;12773;50.162;8.548;2023-04-24T08:39:58;13.90;99.90
24638;DHT22;12773;50.162;8.548;2023-04-24T08:42:46;13.90;99.90
24638;DHT22;12773;50.162;8.548;2023-04-24T08:45:33;13.90;99.90
24638;DHT22;12773;50.162;8.548;2023-04-24T08:48:22;13.70;99.90
24638;DHT22;12773;50.162;8.548;2023-04-24T08:51:11;13.60;99.90
24638;DHT22;12773;50.162;8.548;2023-04-24T08:53:58;13.60;99.90
24638;DHT22;12773;50.162;8.548;2023-04-24T08:56:47;13.80;99.90
24638;DHT22;12773;50.162;8.548;2023-04-24T08:59:35;13.70;99.90
24638;DHT22;12773;50.162;8.548;2023-04-24T09:02:23;13.70;99.90
24638;DHT22;12773;50.162;8.548;2023-04-24T09:05:12;13.60;99.90
24638;DHT22;12773;50.162;8.548;2023-04-24T09:08:01;13.50;99.90
24638;DHT22;12773;50.162;8.548;2023-04-24T09:10:49;13.40;99.90
24638;DHT22;12773;50.162;8.548;2023-04-24T09:13:37;13.40;99.90
24638;DHT22;12773;50.162;8.548;2023-04-24T09:16:25;13.40;99.90
24638;DHT22;12773;50.162;8.548;2023-04-24T09:19:13;13.10;99.90
24638;DHT22;12773;50.162;8.548;2023-04-24T09:22:05;12.90;99.90
24638;DHT22;12773;50.162;8.548;2023-04-24T09:25:07;12.80;99.90
24638;DHT22;12773;50.162;8.548;2023-04-24T09:27:55;12.90;99.90
24638;DHT22;12773;50.162;8.548;2023-04-24T09:30:43;12.80;99.90
24638;DHT22;12773;50.162;8.548;2023-04-24T09:33:31;13.00;99.90
24638;DHT22;12773;50.162;8.548;2023-04-24T09:36:18;13.00;99.90
24638;DHT22;12773;50.162;8.548;2023-04-24T09:39:07;13.00;99.90
24638;DHT22;12773;50.162;8.548;2023-04-24T09:41:56;12.90;99.90
24638;DHT22;12773;50.162;8.548;2023-04-24T09:44:44;13.00;99.90
24638;DHT22;12773;50.162;8.548;2023-04-24T09:47:41;13.10;99.90
24638;DHT22;12773;50.162;8.548;2023-04-24T09:50:24;13.20;99.90
24638;DHT22;12773;50.162;8.548;2023-04-24T09:53:11;12.90;99.90
24638;DHT22;12773;50.162;8.548;2023-04-24T09:56:07;12.90;99.90
24638;DHT22;12773;50.162;8.548;2023-04-24T09:58:52;12.80;99.90
24638;DHT22;12773;50.162;8.548;2023-04-24T10:01:40;13.10;99.90
24638;DHT22;12773;50.162;8.548;2023-04-24T10:04:29;13.10;99.90
24638;DHT22;12773;50.162;8.548;2023-04-24T10:07:16;13.20;99.90
24638;DHT22;12773;50.162;8.548;2023-04-24T10:10:04;13.30;99.90
24638;DHT22;12773;50.162;8.548;2023-04-24T10:12:52;13.70;99.90
24638;DHT22;12773;50.162;8.548;2023-04-24T10:15:43;13.60;99.90
24638;DHT22;12773;50.162;8.548;2023-04-24T10:18:31;13.40;99.90
24638;DHT22;12773;50.162;8.548;2023-04-24T10:21:19;13.20;99.90
24638;DHT22;12773;50.162;8.548;2023-04-24T10:24:06;13.20;99.90
24638;DHT22;12773;50.162;8.548;2023-04-24T10:26:54;13.10;99.90
24638;DHT22;12773;50.162;8.548;2023-04-24T10:29:43;13.00;99.90
24638;DHT22;12773;50.162;8.548;2023-04-24T10:32:32;13.00;99.90
24638;DHT22;12773;50.162;8.548;2023-04-24T10:35:20;13.00;99.90
24638;DHT22;12773;50.162;8.548;2023-04-24T10:38:15;12.70;99.90
24638;DHT22;12773;50.162;8.548;2023-04-24T10:41:13;12.50;99.90
24638;DHT22;12773;50.162;8.548;2023-04-24T10:44:08;12.60;99.90
24638;DHT22;12773;50.162;8.548;2023-04-24T10:46:56;12.60;99.90
24638;DHT22;12773;50.162;8.548;2023-04-24T10:49:43;12.90;99.90
24638;DHT22;12773;50.162;8.548;2023-04-24T10:52:47;13.60;99.90
24638;DHT22;12773;50.162;8.548;2023-04-24T10:55:44;13.70;99.90
24638;DHT22;12773;50.162;8.548;2023-04-24T10:58:40;13.90;99.90
24638;DHT22;12773;50.162;8.548;2023-04-24T11:01:31;13.90;99.90
24638;DHT22;12773;50.162;8.548;2023-04-24T11:04:32;13.70;99.90
24638;DHT22;12773;50.162;8.548;2023-04-24T11:07:11;13.60;99.90
24638;DHT22;12773;50.162;8.548;2023-04-24T11:09:59;13.60;99.90
24638;DHT22;12773;50.162;8.548;2023-04-24T11:12:47;13.50;99.90
24638;DHT22;12773;50.162;8.548;2023-04-24T11:15:34;13.30;99.90
24638;DHT22;12773;50.162;8.548;2023-04-24T11:18:23;13.50;99.90
24638;DHT22;12773;50.162;8.548;2023-04-24T11:21:12;13.80;99.90
24638;DHT22;12773;50.162;8.548;2023-04-24T11:24:21;14.20;99.90
24638;DHT22;12773;50.162;8.548;2023-04-24T11:26:53;14.40;99.90
24638;DHT22;12773;50.162;8.548;2023-04-24T11:32:39;14.70;99.90
24638;DHT22;12773;50.162;8.548;2023-04-24T11:35:26;14.30;99.90
24638;DHT22;12773;50.162;8.548;2023-04-24T11:38:17;14.10;99.90
24638;DHT22;12773;50.162;8.548;2023-04-24T11:41:06;14.10;99.90
24638;DHT22;12773;50.162;8.548;2023-04-24T11:43:54;14.00;99.90
24638;DHT22;12773;50.162;8.548;2023-04-24T11:46:43;14.40;99.90
24638;DHT22;12773;50.162;8.548;2023-04-24T11:49:31;14.60;99.90
24638;DHT22;12773;50.162;8.548;2023-04-24T11:52:19;14.90;99.90
24638;DHT22;12773;50.162;8.548;2023-04-24T11:58:06;14.70;99.90
24638;DHT22;12773;50.162;8.548;2023-04-24T12:00:56;14.50;99.90
24638;DHT22;12773;50.162;8.548;2023-04-24T12:03:48;14.60;99.90
24638;DHT22;12773;50.162;8.548;2023-04-24T12:06:37;14.60;99.90
24638;DHT22;12773;50.162;8.548;2023-04-24T12:09:25;14.60;99.90
24638;DHT22;12773;50.162;8.548;2023-04-24T12:12:15;14.30;99.90
24638;DHT22;12773;50.162;8.548;2023-04-24T12:15:07;14.10;99.90
24638;DHT22;12773;50.162;8.548;2023-04-24T12:17:55;13.70;99.90
24638;DHT22;12773;50.162;8.548;2023-04-24T12:20:42;13.10;99.90
24638;DHT22;12773;50.162;8.548;2023-04-24T12:23:35;12.80;99.90
24638;DHT22;12773;50.162;8.548;2023-04-24T12:26:23;12.90;99.90
24638;DHT22;12773;50.162;8.548;2023-04-24T12:29:19;13.00;99.90
24638;DHT22;12773;50.162;8.548;2023-04-24T12:32:04;13.10;99.90
24638;DHT22;12773;50.162;8.548;2023-04-24T12:34:52;13.10;99.90
24638;DHT22;12773;50.162;8.548;2023-04-24T12:37:42;13.00;99.90
24638;DHT22;12773;50.162;8.548;2023-04-24T12:40:31;13.00;99.90
24638;DHT22;12773;50.162;8.548;2023-04-24T12:43:19;13.20;99.90
24638;DHT22;12773;50.162;8.548;2023-04-24T12:46:07;13.40;99.90
24638;DHT22;12773;50.162;8.548;2023-04-24T12:48:54;13.50;99.90
24638;DHT22;12773;50.162;8.548;2023-04-24T12:51:41;13.70;99.90
24638;DHT22;12773;50.162;8.548;2023-04-24T12:54:33;13.90;99.90
24638;DHT22;12773;50.162;8.548;2023-04-24T12:57:22;14.20;99.90
24638;DHT22;12773;50.162;8.548;2023-04-24T13:00:10;14.30;99.90
24638;DHT22;12773;50.162;8.548;2023-04-24T13:02:57;14.50;99.90
24638;DHT22;12773;50.162;8.548;2023-04-24T13:05:44;14.70;99.90
24638;DHT22;12773;50.162;8.548;2023-04-24T13:08:31;14.80;99.90
24638;DHT22;12773;50.162;8.548;2023-04-24T13:11:19;15.40;99.90
24638;DHT22;12773;50.162;8.548;2023-04-24T13:14:07;15.80;99.90
24638;DHT22;12773;50.162;8.548;2023-04-24T13:16:55;15.80;99.90
24638;DHT22;12773;50.162;8.548;2023-04-24T13:19:43;15.40;99.90
24638;DHT22;12773;50.162;8.548;2023-04-24T13:22:31;15.50;99.90
24638;DHT22;12773;50.162;8.548;2023-04-24T13:25:18;15.30;99.90
24638;DHT22;12773;50.162;8.548;2023-04-24T13:28:07;15.20;99.90
24638;DHT22;12773;50.162;8.548;2023-04-24T13:30:54;14.80;99.90
24638;DHT22;12773;50.162;8.548;2023-04-24T13:33:41;14.40;99.90
24638;DHT22;12773;50.162;8.548;2023-04-24T13:36:29;13.70;99.90
24638;DHT22;12773;50.162;8.548;2023-04-24T13:39:17;13.60;99.90
24638;DHT22;12773;50.162;8.548;2023-04-24T13:42:04;14.10;99.90
24638;DHT22;12773;50.162;8.548;2023-04-24T13:44:52;14.30;99.90
24638;DHT22;12773;50.162;8.548;2023-04-24T13:47:40;14.50;99.90
24638;DHT22;12773;50.162;8.548;2023-04-24T13:50:27;14.50;99.90
24638;DHT22;12773;50.162;8.548;2023-04-24T13:53:15;14.40;99.90
24638;DHT22;12773;50.162;8.548;2023-04-24T13:56:02;14.50;99.90
24638;DHT22;12773;50.162;8.548;2023-04-24T13:58:50;14.60;99.90
24638;DHT22;12773;50.162;8.548;2023-04-24T14:01:38;15.10;99.90
24638;DHT22;12773;50.162;8.548;2023-04-24T14:04:25;15.50;99.90
24638;DHT22;12773;50.162;8.548;2023-04-24T14:07:13;15.70;99.90
24638;DHT22;12773;50.162;8.548;2023-04-24T14:10:01;15.70;99.90
24638;DHT22;12773;50.162;8.548;2023-04-24T14:12:48;15.70;99.90
24638;DHT22;12773;50.162;8.548;2023-04-24T14:15:41;15.70;99.90
24638;DHT22;12773;50.162;8.548;2023-04-24T14:18:25;16.10;99.90
24638;DHT22;12773;50.162;8.548;2023-04-24T14:21:12;16.00;99.90
24638;DHT22;12773;50.162;8.548;2023-04-24T14:23:59;15.70;99.90
24638;DHT22;12773;50.162;8.548;2023-04-24T14:26:47;15.40;99.90
24638;DHT22;12773;50.162;8.548;2023-04-24T14:29:34;15.20;99.90
24638;DHT22;12773;50.162;8.548;2023-04-24T14:32:21;15.10;99.90
24638;DHT22;12773;50.162;8.548;2023-04-24T14:35:09;15.10;99.90
24638;DHT22;12773;50.162;8.548;2023-04-24T14:37:56;15.00;99.90
24638;DHT22;12773;50.162;8.548;2023-04-24T14:40:43;15.00;99.90
24638;DHT22;12773;50.162;8.548;2023-04-24T14:43:32;15.00;99.90
24638;DHT22;12773;50.162;8.548;2023-04-24T14:46:21;15.00;99.90
24638;DHT22;12773;50.162;8.548;2023-04-24T14:49:08;15.00;99.90
24638;DHT22;12773;50.162;8.548;2023-04-24T14:51:56;15.20;99.90
24638;DHT22;12773;50.162;8.548;2023-04-24T14:54:43;15.60;99.90
24638;DHT22;12773;50.162;8.548;2023-04-24T14:57:30;15.70;99.90
24638;DHT22;12773;50.162;8.548;2023-04-24T15:00:18;15.80;99.90
24638;DHT22;12773;50.162;8.548;2023-04-24T15:03:06;15.90;99.90
24638;DHT22;12773;50.162;8.548;2023-04-24T15:05:54;16.00;99.90
24638;DHT22;12773;50.162;8.548;2023-04-24T15:08:41;15.80;99.90
24638;DHT22;12773;50.162;8.548;2023-04-24T15:11:29;15.70;99.90
24638;DHT22;12773;50.162;8.548;2023-04-24T15:14:17;15.50;99.90
24638;DHT22;12773;50.162;8.548;2023-04-24T15:17:04;15.30;99.90
24638;DHT22;12773;50.162;8.548;2023-04-24T15:19:51;15.00;99.90
24638;DHT22;12773;50.162;8.548;2023-04-24T15:22:38;14.90;99.90
24638;DHT22;12773;50.162;8.548;2023-04-24T15:25:26;15.00;99.90
24638;DHT22;12773;50.162;8.548;2023-04-24T15:28:13;15.00;99.90
24638;DHT22;12773;50.162;8.548;2023-04-24T15:31:02;15.00;99.90
24638;DHT22;12773;50.162;8.548;2023-04-24T15:33:50;15.10;99.90
24638;DHT22;12773;50.162;8.548;2023-04-24T15:36:37;14.90;99.90
24638;DHT22;12773;50.162;8.548;2023-04-24T15:39:24;14.70;99.90
24638;DHT22;12773;50.162;8.548;2023-04-24T15:42:13;14.80;99.90
24638;DHT22;12773;50.162;8.548;2023-04-24T15:45:00;14.90;99.90
24638;DHT22;12773;50.162;8.548;2023-04-24T15:47:47;15.10;99.90
24638;DHT22;12773;50.162;8.548;2023-04-24T15:50:35;15.10;99.90
24638;DHT22;12773;50.162;8.548;2023-04-24T15:53:22;15.10;99.90
24638;DHT22;12773;50.162;8.548;2023-04-24T15:56:09;15.20;99.90
24638;DHT22;12773;50.162;8.548;2023-04-24T15:58:57;15.20;99.90
24638;DHT22;12773;50.162;8.548;2023-04-24T16:01:46;15.50;99.90
24638;DHT22;12773;50.162;8.548;2023-04-24T16:04:33;15.90;99.90
24638;DHT22;12773;50.162;8.548;2023-04-24T16:07:24;16.40;99.90
24638;DHT22;12773;50.162;8.548;2023-04-24T16:10:11;16.70;99.90
24638;DHT22;12773;50.162;8.548;2023-04-24T16:13:00;16.50;99.90
24638;DHT22;12773;50.162;8.548;2023-04-24T16:15:50;16.10;99.90
24638;DHT22;12773;50.162;8.548;2023-04-24T16:18:37;15.80;99.90
24638;DHT22;12773;50.162;8.548;2023-04-24T16:21:24;15.80;99.90
24638;DHT22;12773;50.162;8.548;2023-04-24T16:24:11;15.70;99.90
24638;DHT22;12773;50.162;8.548;2023-04-24T16:26:58;15.50;99.90
24638;DHT22;12773;50.162;8.548;2023-04-24T16:29:46;15.20;99.90
24638;DHT22;12773;50.162;8.548;2023-04-24T16:32:34;15.00;99.90
24638;DHT22;12773;50.162;8.548;2023-04-24T16:35:21;15.00;99.90
24638;DHT22;12773;50.162;8.548;2023-04-24T16:38:09;15.50;99.90
24638;DHT22;12773;50.162;8.548;2023-04-24T16:40:56;15.70;99.90
24638;DHT22;12773;50.162;8.548;2023-04-24T16:43:43;15.70;99.90
24638;DHT22;12773;50.162;8.548;2023-04-24T16:46:31;15.50;99.90
24638;DHT22;12773;50.162;8.548;2023-04-24T16:49:18;15.20;99.90
24638;DHT22;12773;50.162;8.548;2023-04-24T16:52:06;15.10;99.90
24638;DHT22;12773;50.162;8.548;2023-04-24T16:54:54;15.10;99.90
24638;DHT22;12773;50.162;8.548;2023-04-24T16:57:41;15.10;99.90
24638;DHT22;12773;50.162;8.548;2023-04-24T17:00:28;14.90;99.90
24638;DHT22;12773;50.162;8.548;2023-04-24T17:03:16;14.90;99.90
24638;DHT22;12773;50.162;8.548;2023-04-24T17:06:04;14.90;99.90
24638;DHT22;12773;50.162;8.548;2023-04-24T17:08:51;15.10;99.90
24638;DHT22;12773;50.162;8.548;2023-04-24T17:11:39;15.20;99.90
24638;DHT22;12773;50.162;8.548;2023-04-24T17:14:26;15.10;99.90
24638;DHT22;12773;50.162;8.548;2023-04-24T17:17:15;15.10;99.90
24638;DHT22;12773;50.162;8.548;2023-04-24T17:20:04;15.10;99.90
24638;DHT22;12773;50.162;8.548;2023-04-24T17:22:52;15.10;99.90
24638;DHT22;12773;50.162;8.548;2023-04-24T17:25:39;15.00;99.90
24638;DHT22;12773;50.162;8.548;2023-04-24T17:28:30;15.00;99.90
24638;DHT22;12773;50.162;8.548;2023-04-24T17:31:18;14.90;99.90
24638;DHT22;12773;50.162;8.548;2023-04-24T17:34:06;14.90;99.90
24638;DHT22;12773;50.162;8.548;2023-04-24T17:36:55;15.00;99.90
24638;DHT22;12773;50.162;8.548;2023-04-24T17:39:42;15.00;99.90
24638;DHT22;12773;50.162;8.548;2023-04-24T17:42:30;15.00;99.90
24638;DHT22;12773;50.162;8.548;2023-04-24T17:45:17;15.00;99.90